sensor_id;sensor_type;location;lat;lon;timestamp;pressure;altitude;pressure_sealevel;temperature;humidity
67397;BME280;57728;50.448;18.824;2023-02-16T00:01:49;98729.53;;;2.63;69.55
67397;BME280;57728;50.448;18.824;2023-02-16T00:03:53;98653.06;;;2.15;69.51
67397;BME280;57728;50.448;18.824;2023-02-16T00:05:56;98684.03;;;2.27;69.52
67397;BME280;57728;50.448;18.824;2023-02-16T00:07:58;98711.47;;;2.47;69.47
67397;BME280;57728;50.448;18.824;2023-02-16T00:10:01;98713.50;;;2.45;69.65
67397;BME280;57728;50.448;18.824;2023-02-16T00:12:17;98726.09;;;2.53;69.57
67397;BME280;57728;50.448;18.824;2023-02-16T00:14:40;98710.75;;;2.37;69.73
67397;BME280;57728;50.448;18.824;2023-02-16T00:16:41;98702.88;;;2.35;69.74
67397;BME280;57728;50.448;18.824;2023-02-16T00:18:43;98721.91;;;2.50;69.75
67397;BME280;57728;50.448;18.824;2023-02-16T00:20:46;98720.22;;;2.49;69.74
67397;BME280;57728;50.448;18.824;2023-02-16T00:22:48;98695.81;;;2.34;69.96
67397;BME280;57728;50.448;18.824;2023-02-16T00:24:50;98686.03;;;2.25;69.80
67397;BME280;57728;50.448;18.824;2023-02-16T00:26:52;98722.72;;;2.43;69.97
67397;BME280;57728;50.448;18.824;2023-02-16T00:28:56;98720.84;;;2.43;69.90
67397;BME280;57728;50.448;18.824;2023-02-16T00:30:59;98638.88;;;1.96;70.04
67397;BME280;57728;50.448;18.824;2023-02-16T00:33:01;98718.34;;;2.41;70.08
67397;BME280;57728;50.448;18.824;2023-02-16T00:35:08;98715.66;;;2.41;70.00
67397;BME280;57728;50.448;18.824;2023-02-16T00:37:17;98688.03;;;2.23;70.17
67397;BME280;57728;50.448;18.824;2023-02-16T00:39:19;98653.34;;;2.03;70.14
67397;BME280;57728;50.448;18.824;2023-02-16T00:41:23;98701.50;;;2.31;70.24
67397;BME280;57728;50.448;18.824;2023-02-16T00:43:44;98692.72;;;2.21;70.27
67397;BME280;57728;50.448;18.824;2023-02-16T00:45:45;98697.09;;;2.22;70.42
67397;BME280;57728;50.448;18.824;2023-02-16T00:47:50;98692.69;;;2.13;70.61
67397;BME280;57728;50.448;18.824;2023-02-16T00:49:55;98675.16;;;2.00;70.56
67397;BME280;57728;50.448;18.824;2023-02-16T00:51:57;98710.22;;;2.25;70.76
67397;BME280;57728;50.448;18.824;2023-02-16T00:53:58;98659.75;;;2.02;70.46
67397;BME280;57728;50.448;18.824;2023-02-16T00:56:00;98665.63;;;2.06;70.59
67397;BME280;57728;50.448;18.824;2023-02-16T00:58:24;98701.13;;;2.26;70.69
67397;BME280;57728;50.448;18.824;2023-02-16T01:00:36;98618.13;;;1.72;70.61
67397;BME280;57728;50.448;18.824;2023-02-16T01:02:44;98658.00;;;1.93;70.69
67397;BME280;57728;50.448;18.824;2023-02-16T01:04:48;98704.00;;;2.24;70.86
67397;BME280;57728;50.448;18.824;2023-02-16T01:06:50;98618.66;;;1.76;70.79
67397;BME280;57728;50.448;18.824;2023-02-16T01:09:17;98611.59;;;1.75;70.67
67397;BME280;57728;50.448;18.824;2023-02-16T01:11:39;98664.63;;;2.07;70.73
67397;BME280;57728;50.448;18.824;2023-02-16T01:13:49;98634.16;;;1.90;70.72
67397;BME280;57728;50.448;18.824;2023-02-16T01:15:53;98502.19;;;0.99;70.71
67397;BME280;57728;50.448;18.824;2023-02-16T01:17:54;98654.38;;;2.02;70.78
67397;BME280;57728;50.448;18.824;2023-02-16T01:19:56;98624.09;;;1.92;70.56
67397;BME280;57728;50.448;18.824;2023-02-16T01:21:58;98573.75;;;1.51;70.70
67397;BME280;57728;50.448;18.824;2023-02-16T01:24:02;98682.66;;;2.23;70.67
67397;BME280;57728;50.448;18.824;2023-02-16T01:26:05;98653.19;;;2.05;70.68
67397;BME280;57728;50.448;18.824;2023-02-16T01:28:21;98678.44;;;2.20;70.72
67397;BME280;57728;50.448;18.824;2023-02-16T01:30:25;98615.00;;;1.85;70.93
67397;BME280;57728;50.448;18.824;2023-02-16T01:32:27;98535.38;;;1.33;70.94
67397;BME280;57728;50.448;18.824;2023-02-16T01:34:30;98667.53;;;2.14;71.29
67397;BME280;57728;50.448;18.824;2023-02-16T01:36:36;98662.31;;;2.12;71.05
67397;BME280;57728;50.448;18.824;2023-02-16T01:38:49;98607.28;;;1.82;70.87
67397;BME280;57728;50.448;18.824;2023-02-16T01:43:44;98669.19;;;2.15;71.17
67397;BME280;57728;50.448;18.824;2023-02-16T01:46:04;98622.72;;;1.88;71.17
67397;BME280;57728;50.448;18.824;2023-02-16T01:48:26;98609.44;;;1.78;71.16
67397;BME280;57728;50.448;18.824;2023-02-16T01:51:05;98661.78;;;2.09;71.14
67397;BME280;57728;50.448;18.824;2023-02-16T01:53:27;98622.06;;;1.86;71.19
67397;BME280;57728;50.448;18.824;2023-02-16T01:55:38;98636.03;;;1.89;71.23
67397;BME280;57728;50.448;18.824;2023-02-16T01:58:13;98626.56;;;1.77;71.42
67397;BME280;57728;50.448;18.824;2023-02-16T02:02:52;98599.13;;;1.65;71.35
67397;BME280;57728;50.448;18.824;2023-02-16T02:05:25;98625.34;;;1.71;71.59
67397;BME280;57728;50.448;18.824;2023-02-16T02:10:10;98654.34;;;1.94;71.41
67397;BME280;57728;50.448;18.824;2023-02-16T02:12:55;98661.22;;;1.97;71.51
67397;BME280;57728;50.448;18.824;2023-02-16T02:15:04;98631.56;;;1.72;71.47
67397;BME280;57728;50.448;18.824;2023-02-16T02:17:13;98675.13;;;1.92;71.58
67397;BME280;57728;50.448;18.824;2023-02-16T02:20:09;98463.09;;;0.62;71.44
67397;BME280;57728;50.448;18.824;2023-02-16T02:26:00;98653.91;;;1.81;71.50
67397;BME280;57728;50.448;18.824;2023-02-16T02:40:59;98668.59;;;1.95;71.76
67397;BME280;57728;50.448;18.824;2023-02-16T02:43:37;98666.75;;;1.95;71.47
67397;BME280;57728;50.448;18.824;2023-02-16T02:48:15;98665.84;;;1.86;71.64
67397;BME280;57728;50.448;18.824;2023-02-16T02:52:30;98659.59;;;1.78;71.78
67397;BME280;57728;50.448;18.824;2023-02-16T02:54:38;98634.72;;;1.67;71.54
67397;BME280;57728;50.448;18.824;2023-02-16T02:57:10;98661.66;;;1.84;71.62
67397;BME280;57728;50.448;18.824;2023-02-16T02:59:41;98644.47;;;1.77;71.66
67397;BME280;57728;50.448;18.824;2023-02-16T03:02:07;98613.91;;;1.61;71.63
67397;BME280;57728;50.448;18.824;2023-02-16T03:04:13;98650.72;;;1.77;71.68
67397;BME280;57728;50.448;18.824;2023-02-16T03:06:27;98655.22;;;1.77;71.67
67397;BME280;57728;50.448;18.824;2023-02-16T03:08:39;98627.97;;;1.63;71.78
67397;BME280;57728;50.448;18.824;2023-02-16T03:10:54;98626.28;;;1.62;71.93
67397;BME280;57728;50.448;18.824;2023-02-16T03:13:30;98635.38;;;1.61;71.87
67397;BME280;57728;50.448;18.824;2023-02-16T03:15:36;98626.63;;;1.59;71.85
67397;BME280;57728;50.448;18.824;2023-02-16T03:17:40;98601.03;;;1.47;72.03
67397;BME280;57728;50.448;18.824;2023-02-16T03:20:07;98656.56;;;1.73;72.02
67397;BME280;57728;50.448;18.824;2023-02-16T03:22:34;98606.72;;;1.44;72.16
67397;BME280;57728;50.448;18.824;2023-02-16T03:24:56;98645.28;;;1.69;72.11
67397;BME280;57728;50.448;18.824;2023-02-16T03:27:37;98646.63;;;1.65;72.39
67397;BME280;57728;50.448;18.824;2023-02-16T03:30:01;98650.59;;;1.61;72.17
67397;BME280;57728;50.448;18.824;2023-02-16T03:32:06;98614.53;;;1.29;72.53
67397;BME280;57728;50.448;18.824;2023-02-16T03:34:10;98614.09;;;1.15;72.50
67397;BME280;57728;50.448;18.824;2023-02-16T03:36:12;98521.50;;;0.59;72.49
67397;BME280;57728;50.448;18.824;2023-02-16T03:38:14;98650.50;;;1.44;72.85
67397;BME280;57728;50.448;18.824;2023-02-16T03:40:16;98507.72;;;0.54;72.77
67397;BME280;57728;50.448;18.824;2023-02-16T03:42:32;98571.53;;;0.94;72.92
67397;BME280;57728;50.448;18.824;2023-02-16T03:44:33;98606.75;;;1.17;72.78
67397;BME280;57728;50.448;18.824;2023-02-16T03:46:36;98590.03;;;1.06;72.98
67397;BME280;57728;50.448;18.824;2023-02-16T03:48:37;98613.25;;;1.15;73.11
67397;BME280;57728;50.448;18.824;2023-02-16T03:50:39;98465.72;;;0.18;72.87
67397;BME280;57728;50.448;18.824;2023-02-16T03:52:41;98508.03;;;0.50;73.19
67397;BME280;57728;50.448;18.824;2023-02-16T03:54:43;98605.47;;;1.03;73.15
67397;BME280;57728;50.448;18.824;2023-02-16T03:56:44;98649.91;;;1.32;73.37
67397;BME280;57728;50.448;18.824;2023-02-16T03:58:46;98617.47;;;1.17;73.37
67397;BME280;57728;50.448;18.824;2023-02-16T04:00:49;98527.00;;;0.57;73.50
67397;BME280;57728;50.448;18.824;2023-02-16T04:02:52;98546.03;;;0.72;73.57
67397;BME280;57728;50.448;18.824;2023-02-16T04:04:54;98603.78;;;1.02;73.62
67397;BME280;57728;50.448;18.824;2023-02-16T04:06:56;98558.00;;;0.78;73.53
67397;BME280;57728;50.448;18.824;2023-02-16T04:08:57;98611.19;;;1.09;73.77
67397;BME280;57728;50.448;18.824;2023-02-16T04:11:00;98629.09;;;1.26;73.64
67397;BME280;57728;50.448;18.824;2023-02-16T04:13:21;98625.56;;;1.26;73.71
67397;BME280;57728;50.448;18.824;2023-02-16T04:15:26;98616.28;;;1.20;73.52
67397;BME280;57728;50.448;18.824;2023-02-16T04:17:30;98632.75;;;1.25;73.76
67397;BME280;57728;50.448;18.824;2023-02-16T04:19:31;98627.56;;;1.24;73.87
67397;BME280;57728;50.448;18.824;2023-02-16T04:21:33;98623.66;;;1.18;73.74
67397;BME280;57728;50.448;18.824;2023-02-16T04:23:35;98536.84;;;0.75;73.79
67397;BME280;57728;50.448;18.824;2023-02-16T04:25:37;98589.88;;;1.07;73.83
67397;BME280;57728;50.448;18.824;2023-02-16T04:27:38;98550.47;;;0.81;73.94
67397;BME280;57728;50.448;18.824;2023-02-16T04:29:42;98581.78;;;0.99;74.08
67397;BME280;57728;50.448;18.824;2023-02-16T04:31:43;98606.50;;;1.11;74.31
67397;BME280;57728;50.448;18.824;2023-02-16T04:33:44;98612.38;;;1.14;74.23
67397;BME280;57728;50.448;18.824;2023-02-16T04:35:47;98620.59;;;1.13;74.25
67397;BME280;57728;50.448;18.824;2023-02-16T04:37:48;98585.88;;;0.85;74.33
67397;BME280;57728;50.448;18.824;2023-02-16T04:39:49;98570.78;;;0.84;74.13
67397;BME280;57728;50.448;18.824;2023-02-16T04:41:52;98526.03;;;0.58;74.22
67397;BME280;57728;50.448;18.824;2023-02-16T04:43:53;98611.19;;;1.09;74.36
67397;BME280;57728;50.448;18.824;2023-02-16T04:45:55;98612.19;;;1.08;74.57
67397;BME280;57728;50.448;18.824;2023-02-16T04:47:57;98592.28;;;0.92;74.60
67397;BME280;57728;50.448;18.824;2023-02-16T04:49:58;98604.09;;;0.99;74.45
67397;BME280;57728;50.448;18.824;2023-02-16T04:52:02;98554.94;;;0.73;74.62
67397;BME280;57728;50.448;18.824;2023-02-16T04:54:06;98539.78;;;0.63;74.57
67397;BME280;57728;50.448;18.824;2023-02-16T04:56:11;98556.91;;;0.71;74.66
67397;BME280;57728;50.448;18.824;2023-02-16T04:58:14;98617.84;;;1.05;74.55
67397;BME280;57728;50.448;18.824;2023-02-16T05:00:17;98603.69;;;0.94;74.68
67397;BME280;57728;50.448;18.824;2023-02-16T05:02:19;98547.47;;;0.58;74.59
67397;BME280;57728;50.448;18.824;2023-02-16T05:04:23;98541.78;;;0.61;74.66
67397;BME280;57728;50.448;18.824;2023-02-16T05:06:27;98592.63;;;0.89;74.74
67397;BME280;57728;50.448;18.824;2023-02-16T05:08:29;98598.41;;;1.02;74.59
67397;BME280;57728;50.448;18.824;2023-02-16T05:10:30;98510.63;;;0.42;74.41
67397;BME280;57728;50.448;18.824;2023-02-16T05:12:32;98534.56;;;0.62;74.54
67397;BME280;57728;50.448;18.824;2023-02-16T05:14:52;98612.81;;;1.01;74.57
67397;BME280;57728;50.448;18.824;2023-02-16T05:16:54;98602.22;;;1.00;74.67
67397;BME280;57728;50.448;18.824;2023-02-16T05:18:56;98578.81;;;0.84;74.36
67397;BME280;57728;50.448;18.824;2023-02-16T05:20:57;98586.38;;;0.89;74.59
67397;BME280;57728;50.448;18.824;2023-02-16T05:23:17;98586.56;;;0.87;74.51
67397;BME280;57728;50.448;18.824;2023-02-16T05:25:20;98583.88;;;0.87;74.47
67397;BME280;57728;50.448;18.824;2023-02-16T05:27:23;98553.19;;;0.63;74.55
67397;BME280;57728;50.448;18.824;2023-02-16T05:29:27;98541.31;;;0.66;74.47
67397;BME280;57728;50.448;18.824;2023-02-16T05:31:29;98518.75;;;0.50;74.42
67397;BME280;57728;50.448;18.824;2023-02-16T05:33:32;98544.53;;;0.70;74.30
67397;BME280;57728;50.448;18.824;2023-02-16T05:35:34;98610.66;;;1.05;74.38
67397;BME280;57728;50.448;18.824;2023-02-16T05:37:36;98594.28;;;0.90;74.54
67397;BME280;57728;50.448;18.824;2023-02-16T05:39:38;98633.94;;;1.05;74.41
67397;BME280;57728;50.448;18.824;2023-02-16T05:41:39;98595.75;;;0.84;74.61
67397;BME280;57728;50.448;18.824;2023-02-16T05:43:41;98587.94;;;0.91;74.41
67397;BME280;57728;50.448;18.824;2023-02-16T05:45:43;98622.22;;;1.06;74.57
67397;BME280;57728;50.448;18.824;2023-02-16T05:47:44;98604.56;;;0.95;74.64
67397;BME280;57728;50.448;18.824;2023-02-16T05:49:47;98624.22;;;1.03;74.81
67397;BME280;57728;50.448;18.824;2023-02-16T05:51:48;98597.28;;;0.87;74.74
67397;BME280;57728;50.448;18.824;2023-02-16T05:53:50;98618.88;;;1.03;74.76
67397;BME280;57728;50.448;18.824;2023-02-16T05:55:52;98605.00;;;0.90;74.86
67397;BME280;57728;50.448;18.824;2023-02-16T05:57:54;98544.72;;;0.50;74.92
67397;BME280;57728;50.448;18.824;2023-02-16T05:59:55;98545.22;;;0.54;74.82
67397;BME280;57728;50.448;18.824;2023-02-16T06:01:57;98615.41;;;0.93;75.02
67397;BME280;57728;50.448;18.824;2023-02-16T06:03:58;98540.09;;;0.42;74.89
67397;BME280;57728;50.448;18.824;2023-02-16T06:06:01;98610.69;;;0.87;75.01
67397;BME280;57728;50.448;18.824;2023-02-16T06:08:04;98541.31;;;0.48;75.13
67397;BME280;57728;50.448;18.824;2023-02-16T06:10:05;98618.78;;;0.95;75.08
67397;BME280;57728;50.448;18.824;2023-02-16T06:12:07;98601.25;;;0.83;75.00
67397;BME280;57728;50.448;18.824;2023-02-16T06:14:15;98609.75;;;0.96;75.12
67397;BME280;57728;50.448;18.824;2023-02-16T06:16:18;98636.00;;;1.11;75.07
67397;BME280;57728;50.448;18.824;2023-02-16T06:18:20;98517.00;;;0.41;74.93
67397;BME280;57728;50.448;18.824;2023-02-16T06:20:24;98637.84;;;1.10;75.20
67397;BME280;57728;50.448;18.824;2023-02-16T06:22:25;98558.94;;;0.68;74.95
67397;BME280;57728;50.448;18.824;2023-02-16T06:24:27;98603.34;;;0.89;75.20
67397;BME280;57728;50.448;18.824;2023-02-16T06:26:29;98617.34;;;1.01;75.11
67397;BME280;57728;50.448;18.824;2023-02-16T06:28:32;98477.31;;;0.19;74.94
67397;BME280;57728;50.448;18.824;2023-02-16T06:30:33;98641.75;;;1.16;75.21
67397;BME280;57728;50.448;18.824;2023-02-16T06:32:37;98618.88;;;1.03;75.09
67397;BME280;57728;50.448;18.824;2023-02-16T06:34:38;98635.22;;;1.18;75.04
67397;BME280;57728;50.448;18.824;2023-02-16T06:36:40;98615.88;;;1.07;75.22
67397;BME280;57728;50.448;18.824;2023-02-16T06:38:43;98501.38;;;0.37;75.14
67397;BME280;57728;50.448;18.824;2023-02-16T06:40:45;98617.00;;;1.04;75.50
67397;BME280;57728;50.448;18.824;2023-02-16T06:42:46;98558.94;;;0.68;75.48
67397;BME280;57728;50.448;18.824;2023-02-16T06:44:49;98619.22;;;1.09;75.53
67397;BME280;57728;50.448;18.824;2023-02-16T06:46:50;98643.34;;;1.27;75.40
67397;BME280;57728;50.448;18.824;2023-02-16T06:48:51;98616.25;;;1.12;75.41
67397;BME280;57728;50.448;18.824;2023-02-16T06:50:54;98577.03;;;0.93;75.55
67397;BME280;57728;50.448;18.824;2023-02-16T06:52:57;98654.47;;;1.32;75.53
67397;BME280;57728;50.448;18.824;2023-02-16T06:54:58;98582.41;;;0.93;75.49
67397;BME280;57728;50.448;18.824;2023-02-16T06:57:01;98636.97;;;1.28;75.73
67397;BME280;57728;50.448;18.824;2023-02-16T06:59:02;98639.91;;;1.43;75.60
67397;BME280;57728;50.448;18.824;2023-02-16T07:01:05;98647.53;;;1.47;75.61
67397;BME280;57728;50.448;18.824;2023-02-16T07:03:07;98567.59;;;1.07;75.28
67397;BME280;57728;50.448;18.824;2023-02-16T07:05:08;98650.94;;;1.58;75.38
67397;BME280;57728;50.448;18.824;2023-02-16T07:07:10;98493.97;;;0.75;75.12
67397;BME280;57728;50.448;18.824;2023-02-16T07:09:12;98646.28;;;1.68;75.24
67397;BME280;57728;50.448;18.824;2023-02-16T07:11:14;98508.28;;;0.83;74.95
67397;BME280;57728;50.448;18.824;2023-02-16T07:13:17;98620.88;;;1.54;75.07
67397;BME280;57728;50.448;18.824;2023-02-16T07:15:19;98620.09;;;1.62;74.91
67397;BME280;57728;50.448;18.824;2023-02-16T07:17:20;98641.66;;;1.78;74.84
67397;BME280;57728;50.448;18.824;2023-02-16T07:19:22;98646.38;;;1.84;74.85
67397;BME280;57728;50.448;18.824;2023-02-16T07:21:24;98574.91;;;1.49;74.85
67397;BME280;57728;50.448;18.824;2023-02-16T07:23:25;98635.13;;;1.81;74.83
67397;BME280;57728;50.448;18.824;2023-02-16T07:25:28;98575.94;;;1.56;74.83
67397;BME280;57728;50.448;18.824;2023-02-16T07:27:31;98662.59;;;2.01;74.56
67397;BME280;57728;50.448;18.824;2023-02-16T07:29:33;98628.78;;;1.90;74.73
67397;BME280;57728;50.448;18.824;2023-02-16T07:31:35;98618.88;;;1.91;74.43
67397;BME280;57728;50.448;18.824;2023-02-16T07:33:37;98663.19;;;2.21;74.29
67397;BME280;57728;50.448;18.824;2023-02-16T07:35:39;98570.66;;;1.73;74.17
67397;BME280;57728;50.448;18.824;2023-02-16T07:37:40;98646.59;;;2.34;74.16
67397;BME280;57728;50.448;18.824;2023-02-16T07:39:42;98633.84;;;2.44;73.91
67397;BME280;57728;50.448;18.824;2023-02-16T07:41:44;98610.50;;;2.36;73.87
67397;BME280;57728;50.448;18.824;2023-02-16T07:43:51;98645.47;;;2.61;73.54
67397;BME280;57728;50.448;18.824;2023-02-16T07:45:54;98570.50;;;2.25;73.13
67397;BME280;57728;50.448;18.824;2023-02-16T07:47:55;98619.97;;;2.65;73.15
67397;BME280;57728;50.448;18.824;2023-02-16T07:49:56;98547.97;;;2.26;73.25
67397;BME280;57728;50.448;18.824;2023-02-16T07:51:59;98603.16;;;2.71;72.82
67397;BME280;57728;50.448;18.824;2023-02-16T07:54:00;98639.66;;;2.99;72.70
67397;BME280;57728;50.448;18.824;2023-02-16T07:56:02;98618.97;;;2.99;72.73
67397;BME280;57728;50.448;18.824;2023-02-16T07:58:04;98623.19;;;3.10;72.06
67397;BME280;57728;50.448;18.824;2023-02-16T08:00:07;98565.50;;;2.80;72.27
67397;BME280;57728;50.448;18.824;2023-02-16T08:02:16;98603.66;;;3.08;72.32
67397;BME280;57728;50.448;18.824;2023-02-16T08:04:18;98601.16;;;3.15;72.07
67397;BME280;57728;50.448;18.824;2023-02-16T08:06:20;98579.28;;;3.09;71.70
67397;BME280;57728;50.448;18.824;2023-02-16T08:08:22;98546.53;;;2.98;71.92
67397;BME280;57728;50.448;18.824;2023-02-16T08:10:24;98469.22;;;2.58;71.22
67397;BME280;57728;50.448;18.824;2023-02-16T08:12:26;98632.03;;;3.68;71.00
67397;BME280;57728;50.448;18.824;2023-02-16T08:14:27;98601.59;;;3.51;70.51
67397;BME280;57728;50.448;18.824;2023-02-16T08:16:30;98600.78;;;3.51;70.39
67397;BME280;57728;50.448;18.824;2023-02-16T08:18:32;98607.09;;;3.74;70.20
67397;BME280;57728;50.448;18.824;2023-02-16T08:20:34;98573.59;;;3.77;70.17
67397;BME280;57728;50.448;18.824;2023-02-16T08:22:36;98606.41;;;4.28;69.90
67397;BME280;57728;50.448;18.824;2023-02-16T08:24:37;98638.88;;;4.67;69.10
67397;BME280;57728;50.448;18.824;2023-02-16T08:26:41;98611.53;;;4.93;67.74
67397;BME280;57728;50.448;18.824;2023-02-16T08:28:46;98583.00;;;4.98;67.55
67397;BME280;57728;50.448;18.824;2023-02-16T08:30:50;98600.75;;;5.31;67.23
67397;BME280;57728;50.448;18.824;2023-02-16T08:32:53;98625.13;;;5.76;66.31
67397;BME280;57728;50.448;18.824;2023-02-16T08:34:57;98614.44;;;5.97;65.41
67397;BME280;57728;50.448;18.824;2023-02-16T08:36:59;98566.06;;;5.88;64.96
67397;BME280;57728;50.448;18.824;2023-02-16T08:39:03;98540.72;;;5.89;63.89
67397;BME280;57728;50.448;18.824;2023-02-16T08:41:07;98644.09;;;6.57;63.35
67397;BME280;57728;50.448;18.824;2023-02-16T08:43:08;98637.56;;;6.66;63.45
67397;BME280;57728;50.448;18.824;2023-02-16T08:45:09;98590.47;;;6.61;62.60
67397;BME280;57728;50.448;18.824;2023-02-16T08:47:12;98620.06;;;6.84;62.06
67397;BME280;57728;50.448;18.824;2023-02-16T08:49:16;98609.94;;;6.93;62.07
67397;BME280;57728;50.448;18.824;2023-02-16T08:51:19;98612.38;;;7.09;61.79
67397;BME280;57728;50.448;18.824;2023-02-16T08:53:23;98636.22;;;7.42;61.27
67397;BME280;57728;50.448;18.824;2023-02-16T08:55:25;98583.44;;;7.31;60.88
67397;BME280;57728;50.448;18.824;2023-02-16T08:57:26;98537.06;;;7.19;60.61
67397;BME280;57728;50.448;18.824;2023-02-16T08:59:29;98601.28;;;7.82;59.89
67397;BME280;57728;50.448;18.824;2023-02-16T09:01:31;98569.91;;;7.66;59.26
67397;BME280;57728;50.448;18.824;2023-02-16T09:03:34;98618.94;;;8.06;58.51
67397;BME280;57728;50.448;18.824;2023-02-16T09:05:37;98525.72;;;7.66;57.72
67397;BME280;57728;50.448;18.824;2023-02-16T09:07:38;98616.97;;;8.29;58.50
67397;BME280;57728;50.448;18.824;2023-02-16T09:09:41;98640.47;;;8.56;57.20
67397;BME280;57728;50.448;18.824;2023-02-16T09:11:46;98630.91;;;8.60;57.11
67397;BME280;57728;50.448;18.824;2023-02-16T09:13:49;98490.09;;;7.75;56.27
67397;BME280;57728;50.448;18.824;2023-02-16T09:15:51;98548.28;;;8.21;56.29
67397;BME280;57728;50.448;18.824;2023-02-16T09:17:53;98642.66;;;8.81;55.96
67397;BME280;57728;50.448;18.824;2023-02-16T09:19:55;98605.47;;;8.68;55.59
67397;BME280;57728;50.448;18.824;2023-02-16T09:21:57;98555.66;;;8.41;55.55
67397;BME280;57728;50.448;18.824;2023-02-16T09:24:02;98573.03;;;8.53;54.78
67397;BME280;57728;50.448;18.824;2023-02-16T09:26:05;98593.34;;;8.71;55.05
67397;BME280;57728;50.448;18.824;2023-02-16T09:28:10;98590.03;;;8.89;55.44
67397;BME280;57728;50.448;18.824;2023-02-16T09:30:12;98613.91;;;9.27;54.70
67397;BME280;57728;50.448;18.824;2023-02-16T09:32:14;98630.44;;;9.39;54.17
67397;BME280;57728;50.448;18.824;2023-02-16T09:34:19;98649.03;;;9.55;53.96
67397;BME280;57728;50.448;18.824;2023-02-16T09:36:23;98632.31;;;9.45;53.75
67397;BME280;57728;50.448;18.824;2023-02-16T09:38:24;98653.41;;;9.83;53.86
67397;BME280;57728;50.448;18.824;2023-02-16T09:40:26;98634.81;;;9.73;52.73
67397;BME280;57728;50.448;18.824;2023-02-16T09:43:01;98640.22;;;9.87;52.66
67397;BME280;57728;50.448;18.824;2023-02-16T09:45:21;98586.72;;;9.47;52.73
67397;BME280;57728;50.448;18.824;2023-02-16T09:47:28;98601.34;;;9.66;52.42
67397;BME280;57728;50.448;18.824;2023-02-16T09:49:39;98621.41;;;9.85;51.88
67397;BME280;57728;50.448;18.824;2023-02-16T09:51:44;98607.81;;;9.85;51.45
67397;BME280;57728;50.448;18.824;2023-02-16T09:54:01;98582.50;;;9.78;51.25
67397;BME280;57728;50.448;18.824;2023-02-16T09:56:43;98648.50;;;10.32;50.98
67397;BME280;57728;50.448;18.824;2023-02-16T09:59:02;98609.63;;;10.05;50.85
67397;BME280;57728;50.448;18.824;2023-02-16T10:01:42;98612.56;;;10.10;50.78
67397;BME280;57728;50.448;18.824;2023-02-16T10:06:33;98578.03;;;10.10;50.88
67397;BME280;57728;50.448;18.824;2023-02-16T10:09:06;98599.47;;;10.52;50.35
67397;BME280;57728;50.448;18.824;2023-02-16T10:11:27;98560.13;;;10.48;50.08
67397;BME280;57728;50.448;18.824;2023-02-16T10:13:55;98565.75;;;10.85;49.24
67397;BME280;57728;50.448;18.824;2023-02-16T10:16:04;98530.91;;;10.94;49.47
67397;BME280;57728;50.448;18.824;2023-02-16T10:18:51;98596.63;;;11.61;48.62
67397;BME280;57728;50.448;18.824;2023-02-16T10:20:52;98594.22;;;11.72;48.32
67397;BME280;57728;50.448;18.824;2023-02-16T10:23:01;98601.44;;;11.84;47.57
67397;BME280;57728;50.448;18.824;2023-02-16T10:30:18;98587.63;;;12.23;46.57
67397;BME280;57728;50.448;18.824;2023-02-16T10:32:27;98580.09;;;12.18;45.82
67397;BME280;57728;50.448;18.824;2023-02-16T10:34:50;98579.75;;;12.15;45.45
67397;BME280;57728;50.448;18.824;2023-02-16T10:39:37;98575.69;;;11.99;45.44
67397;BME280;57728;50.448;18.824;2023-02-16T10:42:43;98567.50;;;11.99;45.96
67397;BME280;57728;50.448;18.824;2023-02-16T10:45:01;98577.47;;;12.12;45.71
67397;BME280;57728;50.448;18.824;2023-02-16T10:47:35;98515.41;;;11.82;45.23
67397;BME280;57728;50.448;18.824;2023-02-16T10:49:40;98568.81;;;12.15;44.67
67397;BME280;57728;50.448;18.824;2023-02-16T10:51:48;98544.72;;;12.12;45.11
67397;BME280;57728;50.448;18.824;2023-02-16T10:54:00;98557.41;;;12.36;45.05
67397;BME280;57728;50.448;18.824;2023-02-16T10:58:55;98525.59;;;13.15;43.78
67397;BME280;57728;50.448;18.824;2023-02-16T11:03:23;98448.91;;;12.86;42.79
67397;BME280;57728;50.448;18.824;2023-02-16T11:05:39;98478.53;;;13.01;42.08
67397;BME280;57728;50.448;18.824;2023-02-16T11:07:52;98567.88;;;13.66;42.26
67397;BME280;57728;50.448;18.824;2023-02-16T11:09:59;98548.50;;;13.56;41.36
67397;BME280;57728;50.448;18.824;2023-02-16T11:14:34;98528.88;;;13.35;41.96
67397;BME280;57728;50.448;18.824;2023-02-16T11:16:35;98503.84;;;13.32;42.09
67397;BME280;57728;50.448;18.824;2023-02-16T11:18:45;98533.88;;;13.62;42.08
67397;BME280;57728;50.448;18.824;2023-02-16T11:20:56;98524.72;;;14.21;42.62
67397;BME280;57728;50.448;18.824;2023-02-16T11:23:21;98482.00;;;14.49;41.25
67397;BME280;57728;50.448;18.824;2023-02-16T11:25:26;98539.75;;;14.88;40.79
67397;BME280;57728;50.448;18.824;2023-02-16T11:27:27;98516.03;;;14.53;39.79
67397;BME280;57728;50.448;18.824;2023-02-16T11:29:30;98530.88;;;14.69;40.89
67397;BME280;57728;50.448;18.824;2023-02-16T11:31:39;98515.34;;;15.03;40.72
67397;BME280;57728;50.448;18.824;2023-02-16T11:33:53;98504.63;;;15.02;40.06
67397;BME280;57728;50.448;18.824;2023-02-16T11:35:57;98477.09;;;14.79;38.70
67397;BME280;57728;50.448;18.824;2023-02-16T11:37:59;98493.69;;;14.73;38.87
67397;BME280;57728;50.448;18.824;2023-02-16T11:40:18;98543.94;;;14.78;39.44
67397;BME280;57728;50.448;18.824;2023-02-16T11:42:33;98529.56;;;14.71;39.43
67397;BME280;57728;50.448;18.824;2023-02-16T11:44:53;98398.66;;;13.87;39.49
67397;BME280;57728;50.448;18.824;2023-02-16T11:46:59;98511.00;;;14.73;39.67
67397;BME280;57728;50.448;18.824;2023-02-16T11:49:32;98527.47;;;14.90;39.19
67397;BME280;57728;50.448;18.824;2023-02-16T11:51:43;98520.06;;;14.91;38.65
67397;BME280;57728;50.448;18.824;2023-02-16T11:53:44;98528.00;;;14.75;38.84
67397;BME280;57728;50.448;18.824;2023-02-16T11:55:47;98527.91;;;14.70;39.14
67397;BME280;57728;50.448;18.824;2023-02-16T11:57:50;98542.31;;;14.77;38.94
67397;BME280;57728;50.448;18.824;2023-02-16T11:59:52;98529.31;;;14.44;39.19